sensor_id;sensor_type;location;lat;lon;timestamp;P1;durP1;ratioP1;P2;durP2;ratioP2
44606;SDS011;30315;46.072;14.474;2023-06-22T00:00:02;12.52;;;7.45;;
44606;SDS011;30315;46.072;14.474;2023-06-22T00:02:37;15.18;;;7.55;;
44606;SDS011;30315;46.072;14.474;2023-06-22T00:05:04;11.63;;;7.45;;
44606;SDS011;30315;46.072;14.474;2023-06-22T00:07:31;8.00;;;7.22;;
44606;SDS011;30315;46.072;14.474;2023-06-22T00:09:58;10.55;;;7.70;;
44606;SDS011;30315;46.072;14.474;2023-06-22T00:12:25;10.98;;;7.30;;
44606;SDS011;30315;46.072;14.474;2023-06-22T00:14:52;8.77;;;7.90;;
44606;SDS011;30315;46.072;14.474;2023-06-22T00:17:19;8.88;;;7.50;;
44606;SDS011;30315;46.072;14.474;2023-06-22T00:19:46;13.13;;;7.65;;
44606;SDS011;30315;46.072;14.474;2023-06-22T00:22:14;12.18;;;7.50;;
44606;SDS011;30315;46.072;14.474;2023-06-22T00:24:40;12.43;;;7.55;;
44606;SDS011;30315;46.072;14.474;2023-06-22T00:27:08;11.75;;;7.50;;
44606;SDS011;30315;46.072;14.474;2023-06-22T00:29:35;9.30;;;6.93;;
44606;SDS011;30315;46.072;14.474;2023-06-22T00:32:03;8.07;;;7.22;;
44606;SDS011;30315;46.072;14.474;2023-06-22T00:34:30;9.70;;;7.55;;
44606;SDS011;30315;46.072;14.474;2023-06-22T00:36:58;11.13;;;8.25;;
44606;SDS011;30315;46.072;14.474;2023-06-22T00:39:26;8.65;;;7.63;;
44606;SDS011;30315;46.072;14.474;2023-06-22T00:41:52;12.35;;;7.68;;
44606;SDS011;30315;46.072;14.474;2023-06-22T00:44:19;12.15;;;7.70;;
44606;SDS011;30315;46.072;14.474;2023-06-22T00:46:46;10.75;;;8.35;;
44606;SDS011;30315;46.072;14.474;2023-06-22T00:49:13;11.02;;;8.02;;
44606;SDS011;30315;46.072;14.474;2023-06-22T00:51:40;10.98;;;7.90;;
44606;SDS011;30315;46.072;14.474;2023-06-22T00:54:14;10.38;;;7.88;;
44606;SDS011;30315;46.072;14.474;2023-06-22T00:56:41;10.60;;;7.18;;
44606;SDS011;30315;46.072;14.474;2023-06-22T00:59:08;13.07;;;8.07;;
44606;SDS011;30315;46.072;14.474;2023-06-22T01:01:40;13.23;;;8.32;;
44606;SDS011;30315;46.072;14.474;2023-06-22T01:04:07;16.20;;;7.65;;
44606;SDS011;30315;46.072;14.474;2023-06-22T01:06:38;10.48;;;7.70;;
44606;SDS011;30315;46.072;14.474;2023-06-22T01:09:20;11.18;;;8.13;;
44606;SDS011;30315;46.072;14.474;2023-06-22T01:11:54;8.50;;;7.60;;
44606;SDS011;30315;46.072;14.474;2023-06-22T01:14:37;9.43;;;7.80;;
44606;SDS011;30315;46.072;14.474;2023-06-22T01:17:17;12.20;;;7.75;;
44606;SDS011;30315;46.072;14.474;2023-06-22T01:19:48;9.88;;;8.00;;
44606;SDS011;30315;46.072;14.474;2023-06-22T01:22:23;11.48;;;7.50;;
44606;SDS011;30315;46.072;14.474;2023-06-22T01:30:56;10.48;;;8.30;;
44606;SDS011;30315;46.072;14.474;2023-06-22T01:33:35;8.98;;;7.65;;
44606;SDS011;30315;46.072;14.474;2023-06-22T01:36:05;8.82;;;7.30;;
44606;SDS011;30315;46.072;14.474;2023-06-22T01:38:33;10.00;;;7.32;;
44606;SDS011;30315;46.072;14.474;2023-06-22T01:41:02;10.63;;;7.67;;
44606;SDS011;30315;46.072;14.474;2023-06-22T01:43:30;9.07;;;7.65;;
44606;SDS011;30315;46.072;14.474;2023-06-22T01:46:00;8.93;;;7.68;;
44606;SDS011;30315;46.072;14.474;2023-06-22T01:48:28;10.60;;;7.97;;
44606;SDS011;30315;46.072;14.474;2023-06-22T01:50:56;11.55;;;7.88;;
44606;SDS011;30315;46.072;14.474;2023-06-22T01:53:23;9.75;;;7.40;;
44606;SDS011;30315;46.072;14.474;2023-06-22T01:55:51;8.82;;;7.68;;
44606;SDS011;30315;46.072;14.474;2023-06-22T01:58:20;10.00;;;7.43;;
44606;SDS011;30315;46.072;14.474;2023-06-22T02:00:55;10.32;;;7.57;;
44606;SDS011;30315;46.072;14.474;2023-06-22T02:03:32;9.32;;;7.55;;
44606;SDS011;30315;46.072;14.474;2023-06-22T02:06:08;13.10;;;7.60;;
44606;SDS011;30315;46.072;14.474;2023-06-22T02:08:48;9.10;;;7.97;;
44606;SDS011;30315;46.072;14.474;2023-06-22T02:11:18;10.70;;;7.82;;
44606;SDS011;30315;46.072;14.474;2023-06-22T02:13:47;8.93;;;7.90;;
44606;SDS011;30315;46.072;14.474;2023-06-22T02:16:15;12.02;;;8.50;;
44606;SDS011;30315;46.072;14.474;2023-06-22T02:24:18;9.50;;;8.18;;
44606;SDS011;30315;46.072;14.474;2023-06-22T02:26:45;16.65;;;8.02;;
44606;SDS011;30315;46.072;14.474;2023-06-22T02:29:12;13.98;;;7.88;;
44606;SDS011;30315;46.072;14.474;2023-06-22T02:31:41;9.95;;;8.02;;
44606;SDS011;30315;46.072;14.474;2023-06-22T02:34:08;9.82;;;8.45;;
44606;SDS011;30315;46.072;14.474;2023-06-22T02:36:35;10.27;;;8.75;;
44606;SDS011;30315;46.072;14.474;2023-06-22T02:39:02;13.32;;;8.35;;
44606;SDS011;30315;46.072;14.474;2023-06-22T02:41:30;10.65;;;8.18;;
44606;SDS011;30315;46.072;14.474;2023-06-22T02:43:57;15.25;;;8.55;;
44606;SDS011;30315;46.072;14.474;2023-06-22T02:46:24;11.90;;;8.10;;
44606;SDS011;30315;46.072;14.474;2023-06-22T02:48:51;11.32;;;8.40;;
44606;SDS011;30315;46.072;14.474;2023-06-22T02:51:18;11.45;;;9.10;;
44606;SDS011;30315;46.072;14.474;2023-06-22T02:53:46;14.32;;;8.63;;
44606;SDS011;30315;46.072;14.474;2023-06-22T02:56:14;10.98;;;8.68;;
44606;SDS011;30315;46.072;14.474;2023-06-22T02:58:43;11.63;;;8.70;;
44606;SDS011;30315;46.072;14.474;2023-06-22T03:01:11;9.70;;;8.52;;
44606;SDS011;30315;46.072;14.474;2023-06-22T03:03:45;8.90;;;7.90;;
44606;SDS011;30315;46.072;14.474;2023-06-22T03:06:12;11.35;;;8.15;;
44606;SDS011;30315;46.072;14.474;2023-06-22T03:08:40;10.10;;;8.70;;
44606;SDS011;30315;46.072;14.474;2023-06-22T03:11:08;10.65;;;8.35;;
44606;SDS011;30315;46.072;14.474;2023-06-22T03:13:35;10.70;;;8.23;;
44606;SDS011;30315;46.072;14.474;2023-06-22T03:16:02;8.82;;;8.00;;
44606;SDS011;30315;46.072;14.474;2023-06-22T03:18:29;14.35;;;9.10;;
44606;SDS011;30315;46.072;14.474;2023-06-22T03:20:56;11.02;;;8.20;;
44606;SDS011;30315;46.072;14.474;2023-06-22T03:23:23;10.25;;;8.25;;
44606;SDS011;30315;46.072;14.474;2023-06-22T03:25:50;11.38;;;8.75;;
44606;SDS011;30315;46.072;14.474;2023-06-22T03:28:17;9.63;;;8.73;;
44606;SDS011;30315;46.072;14.474;2023-06-22T03:30:44;10.55;;;8.43;;
44606;SDS011;30315;46.072;14.474;2023-06-22T03:33:11;9.68;;;8.27;;
44606;SDS011;30315;46.072;14.474;2023-06-22T03:35:38;10.63;;;8.38;;
44606;SDS011;30315;46.072;14.474;2023-06-22T03:38:05;16.77;;;9.13;;
44606;SDS011;30315;46.072;14.474;2023-06-22T03:40:32;12.85;;;8.90;;
44606;SDS011;30315;46.072;14.474;2023-06-22T03:43:00;12.85;;;8.43;;
44606;SDS011;30315;46.072;14.474;2023-06-22T03:45:28;10.47;;;8.63;;
44606;SDS011;30315;46.072;14.474;2023-06-22T03:47:56;8.75;;;7.82;;
44606;SDS011;30315;46.072;14.474;2023-06-22T03:50:24;12.15;;;8.48;;
44606;SDS011;30315;46.072;14.474;2023-06-22T03:52:51;12.50;;;8.77;;
44606;SDS011;30315;46.072;14.474;2023-06-22T03:55:21;12.18;;;8.43;;
44606;SDS011;30315;46.072;14.474;2023-06-22T03:57:48;14.48;;;9.55;;
44606;SDS011;30315;46.072;14.474;2023-06-22T04:00:15;11.27;;;8.65;;
44606;SDS011;30315;46.072;14.474;2023-06-22T04:02:43;9.13;;;8.13;;
44606;SDS011;30315;46.072;14.474;2023-06-22T04:05:10;12.45;;;9.23;;
44606;SDS011;30315;46.072;14.474;2023-06-22T04:07:37;12.00;;;8.57;;
44606;SDS011;30315;46.072;14.474;2023-06-22T04:10:04;10.90;;;8.90;;
44606;SDS011;30315;46.072;14.474;2023-06-22T04:12:32;10.98;;;8.90;;
44606;SDS011;30315;46.072;14.474;2023-06-22T04:14:59;12.43;;;9.27;;
44606;SDS011;30315;46.072;14.474;2023-06-22T04:17:25;10.07;;;8.57;;
44606;SDS011;30315;46.072;14.474;2023-06-22T04:19:52;8.75;;;7.90;;
44606;SDS011;30315;46.072;14.474;2023-06-22T04:22:19;11.10;;;8.93;;
44606;SDS011;30315;46.072;14.474;2023-06-22T04:24:46;13.63;;;8.80;;
44606;SDS011;30315;46.072;14.474;2023-06-22T04:27:13;12.77;;;8.98;;
44606;SDS011;30315;46.072;14.474;2023-06-22T04:29:40;14.02;;;8.65;;
44606;SDS011;30315;46.072;14.474;2023-06-22T04:32:15;11.90;;;9.32;;
44606;SDS011;30315;46.072;14.474;2023-06-22T04:34:42;13.60;;;9.00;;
44606;SDS011;30315;46.072;14.474;2023-06-22T04:37:10;10.27;;;8.90;;
44606;SDS011;30315;46.072;14.474;2023-06-22T04:39:42;12.85;;;8.77;;
44606;SDS011;30315;46.072;14.474;2023-06-22T04:42:09;10.70;;;9.05;;
44606;SDS011;30315;46.072;14.474;2023-06-22T04:44:36;11.10;;;9.23;;
44606;SDS011;30315;46.072;14.474;2023-06-22T04:47:03;12.70;;;8.95;;
44606;SDS011;30315;46.072;14.474;2023-06-22T04:49:33;12.50;;;8.82;;
44606;SDS011;30315;46.072;14.474;2023-06-22T04:52:06;11.18;;;9.02;;
44606;SDS011;30315;46.072;14.474;2023-06-22T04:54:35;10.85;;;9.25;;
44606;SDS011;30315;46.072;14.474;2023-06-22T04:57:04;13.15;;;9.50;;
44606;SDS011;30315;46.072;14.474;2023-06-22T04:59:37;10.65;;;9.43;;
44606;SDS011;30315;46.072;14.474;2023-06-22T05:02:05;14.70;;;9.57;;
44606;SDS011;30315;46.072;14.474;2023-06-22T05:04:32;18.10;;;9.60;;
44606;SDS011;30315;46.072;14.474;2023-06-22T05:07:02;12.63;;;9.68;;
44606;SDS011;30315;46.072;14.474;2023-06-22T05:09:29;13.05;;;10.93;;
44606;SDS011;30315;46.072;14.474;2023-06-22T05:11:57;16.77;;;11.30;;
44606;SDS011;30315;46.072;14.474;2023-06-22T05:14:24;17.88;;;10.48;;
44606;SDS011;30315;46.072;14.474;2023-06-22T05:16:51;14.05;;;10.02;;
44606;SDS011;30315;46.072;14.474;2023-06-22T05:19:25;12.73;;;9.90;;
44606;SDS011;30315;46.072;14.474;2023-06-22T05:22:00;19.70;;;12.30;;
44606;SDS011;30315;46.072;14.474;2023-06-22T05:24:27;16.00;;;11.52;;
44606;SDS011;30315;46.072;14.474;2023-06-22T05:26:54;16.85;;;11.68;;
44606;SDS011;30315;46.072;14.474;2023-06-22T05:29:21;20.00;;;11.48;;
44606;SDS011;30315;46.072;14.474;2023-06-22T05:31:49;16.70;;;11.40;;
44606;SDS011;30315;46.072;14.474;2023-06-22T05:34:16;18.80;;;12.30;;
44606;SDS011;30315;46.072;14.474;2023-06-22T05:36:43;14.80;;;11.10;;
44606;SDS011;30315;46.072;14.474;2023-06-22T05:39:11;17.85;;;11.75;;
44606;SDS011;30315;46.072;14.474;2023-06-22T05:41:42;18.55;;;11.65;;
44606;SDS011;30315;46.072;14.474;2023-06-22T05:44:10;12.63;;;11.30;;
44606;SDS011;30315;46.072;14.474;2023-06-22T05:46:40;17.83;;;11.90;;
44606;SDS011;30315;46.072;14.474;2023-06-22T05:49:11;13.93;;;11.00;;
44606;SDS011;30315;46.072;14.474;2023-06-22T05:51:39;17.80;;;10.60;;
44606;SDS011;30315;46.072;14.474;2023-06-22T05:54:07;19.33;;;11.45;;
44606;SDS011;30315;46.072;14.474;2023-06-22T05:56:37;18.17;;;11.38;;
44606;SDS011;30315;46.072;14.474;2023-06-22T05:59:04;14.30;;;10.77;;
44606;SDS011;30315;46.072;14.474;2023-06-22T06:01:31;12.57;;;10.63;;
44606;SDS011;30315;46.072;14.474;2023-06-22T06:04:02;15.27;;;11.73;;
44606;SDS011;30315;46.072;14.474;2023-06-22T06:06:30;16.98;;;11.60;;
44606;SDS011;30315;46.072;14.474;2023-06-22T06:08:57;15.90;;;10.68;;
44606;SDS011;30315;46.072;14.474;2023-06-22T06:11:26;16.23;;;11.30;;
44606;SDS011;30315;46.072;14.474;2023-06-22T06:13:53;13.10;;;10.45;;
44606;SDS011;30315;46.072;14.474;2023-06-22T06:16:20;14.15;;;10.75;;
44606;SDS011;30315;46.072;14.474;2023-06-22T06:18:48;14.90;;;10.82;;
44606;SDS011;30315;46.072;14.474;2023-06-22T06:21:16;17.23;;;10.33;;
44606;SDS011;30315;46.072;14.474;2023-06-22T06:23:43;15.55;;;10.43;;
44606;SDS011;30315;46.072;14.474;2023-06-22T06:26:11;14.32;;;10.52;;
44606;SDS011;30315;46.072;14.474;2023-06-22T06:28:38;17.50;;;10.77;;
44606;SDS011;30315;46.072;14.474;2023-06-22T06:31:05;14.10;;;10.55;;
44606;SDS011;30315;46.072;14.474;2023-06-22T06:33:34;15.95;;;10.93;;
44606;SDS011;30315;46.072;14.474;2023-06-22T06:36:02;11.30;;;10.25;;
44606;SDS011;30315;46.072;14.474;2023-06-22T06:38:30;15.77;;;11.77;;
44606;SDS011;30315;46.072;14.474;2023-06-22T06:40:57;13.98;;;11.32;;
44606;SDS011;30315;46.072;14.474;2023-06-22T06:43:25;14.07;;;10.73;;
44606;SDS011;30315;46.072;14.474;2023-06-22T06:45:53;15.82;;;10.27;;
44606;SDS011;30315;46.072;14.474;2023-06-22T06:48:20;15.32;;;10.23;;
44606;SDS011;30315;46.072;14.474;2023-06-22T06:50:47;14.23;;;10.63;;
44606;SDS011;30315;46.072;14.474;2023-06-22T06:53:14;13.32;;;10.20;;
44606;SDS011;30315;46.072;14.474;2023-06-22T06:55:41;15.20;;;10.70;;
44606;SDS011;30315;46.072;14.474;2023-06-22T06:58:08;14.20;;;10.23;;
44606;SDS011;30315;46.072;14.474;2023-06-22T07:00:36;11.07;;;9.95;;
44606;SDS011;30315;46.072;14.474;2023-06-22T07:03:03;10.02;;;8.95;;
44606;SDS011;30315;46.072;14.474;2023-06-22T07:05:31;10.18;;;9.00;;
44606;SDS011;30315;46.072;14.474;2023-06-22T07:07:58;14.32;;;10.43;;
44606;SDS011;30315;46.072;14.474;2023-06-22T07:10:25;15.07;;;10.52;;
44606;SDS011;30315;46.072;14.474;2023-06-22T07:12:53;14.48;;;10.30;;
44606;SDS011;30315;46.072;14.474;2023-06-22T07:15:20;13.63;;;10.55;;
44606;SDS011;30315;46.072;14.474;2023-06-22T07:17:47;17.60;;;10.93;;
44606;SDS011;30315;46.072;14.474;2023-06-22T07:20:14;14.65;;;10.98;;
44606;SDS011;30315;46.072;14.474;2023-06-22T07:22:42;15.57;;;10.05;;
44606;SDS011;30315;46.072;14.474;2023-06-22T07:25:11;11.60;;;9.82;;
44606;SDS011;30315;46.072;14.474;2023-06-22T07:27:45;17.52;;;11.70;;
44606;SDS011;30315;46.072;14.474;2023-06-22T07:30:22;12.38;;;10.00;;
44606;SDS011;30315;46.072;14.474;2023-06-22T07:32:49;12.50;;;10.13;;
44606;SDS011;30315;46.072;14.474;2023-06-22T07:35:16;12.70;;;10.07;;
44606;SDS011;30315;46.072;14.474;2023-06-22T07:37:43;14.93;;;10.45;;
44606;SDS011;30315;46.072;14.474;2023-06-22T07:40:11;10.38;;;9.20;;
44606;SDS011;30315;46.072;14.474;2023-06-22T07:42:38;13.35;;;10.35;;
44606;SDS011;30315;46.072;14.474;2023-06-22T07:45:05;11.95;;;8.90;;
44606;SDS011;30315;46.072;14.474;2023-06-22T07:47:36;11.55;;;9.88;;
44606;SDS011;30315;46.072;14.474;2023-06-22T07:50:04;11.70;;;9.40;;
44606;SDS011;30315;46.072;14.474;2023-06-22T07:52:31;11.90;;;10.68;;
44606;SDS011;30315;46.072;14.474;2023-06-22T07:54:58;11.52;;;9.80;;
44606;SDS011;30315;46.072;14.474;2023-06-22T07:57:25;14.52;;;10.27;;
44606;SDS011;30315;46.072;14.474;2023-06-22T07:59:59;16.05;;;9.93;;
44606;SDS011;30315;46.072;14.474;2023-06-22T08:02:37;16.13;;;8.90;;
44606;SDS011;30315;46.072;14.474;2023-06-22T08:05:05;13.52;;;9.68;;
44606;SDS011;30315;46.072;14.474;2023-06-22T08:07:47;15.70;;;9.90;;
44606;SDS011;30315;46.072;14.474;2023-06-22T08:10:15;14.27;;;9.13;;
44606;SDS011;30315;46.072;14.474;2023-06-22T08:12:42;11.85;;;9.43;;
44606;SDS011;30315;46.072;14.474;2023-06-22T08:15:09;12.38;;;9.57;;
44606;SDS011;30315;46.072;14.474;2023-06-22T08:17:37;14.80;;;9.73;;
44606;SDS011;30315;46.072;14.474;2023-06-22T08:20:06;10.45;;;8.90;;
44606;SDS011;30315;46.072;14.474;2023-06-22T08:22:36;12.38;;;8.63;;
44606;SDS011;30315;46.072;14.474;2023-06-22T08:25:03;11.70;;;8.43;;
44606;SDS011;30315;46.072;14.474;2023-06-22T08:27:31;11.50;;;8.32;;
44606;SDS011;30315;46.072;14.474;2023-06-22T08:29:59;12.52;;;8.60;;
44606;SDS011;30315;46.072;14.474;2023-06-22T08:32:29;10.43;;;8.52;;
44606;SDS011;30315;46.072;14.474;2023-06-22T08:34:59;9.70;;;8.13;;
44606;SDS011;30315;46.072;14.474;2023-06-22T08:37:26;9.15;;;8.18;;
44606;SDS011;30315;46.072;14.474;2023-06-22T08:40:03;9.98;;;8.50;;
44606;SDS011;30315;46.072;14.474;2023-06-22T08:42:33;8.07;;;7.28;;
44606;SDS011;30315;46.072;14.474;2023-06-22T08:45:00;12.38;;;8.35;;
44606;SDS011;30315;46.072;14.474;2023-06-22T08:47:27;14.77;;;8.52;;
44606;SDS011;30315;46.072;14.474;2023-06-22T08:49:58;10.50;;;8.48;;
44606;SDS011;30315;46.072;14.474;2023-06-22T08:52:29;13.88;;;9.15;;
44606;SDS011;30315;46.072;14.474;2023-06-22T08:54:56;11.23;;;8.65;;
44606;SDS011;30315;46.072;14.474;2023-06-22T08:57:25;16.50;;;9.32;;
44606;SDS011;30315;46.072;14.474;2023-06-22T08:59:52;15.95;;;8.60;;
44606;SDS011;30315;46.072;14.474;2023-06-22T09:02:20;15.93;;;8.68;;
44606;SDS011;30315;46.072;14.474;2023-06-22T09:04:47;12.65;;;8.57;;
44606;SDS011;30315;46.072;14.474;2023-06-22T09:07:15;10.75;;;8.60;;
44606;SDS011;30315;46.072;14.474;2023-06-22T09:09:49;10.52;;;8.45;;
44606;SDS011;30315;46.072;14.474;2023-06-22T09:12:17;11.55;;;8.32;;
44606;SDS011;30315;46.072;14.474;2023-06-22T09:14:46;11.43;;;8.45;;
44606;SDS011;30315;46.072;14.474;2023-06-22T09:17:13;12.95;;;8.85;;
44606;SDS011;30315;46.072;14.474;2023-06-22T09:19:40;11.50;;;8.77;;
44606;SDS011;30315;46.072;14.474;2023-06-22T09:22:07;10.30;;;7.97;;
44606;SDS011;30315;46.072;14.474;2023-06-22T09:24:35;12.57;;;8.63;;
44606;SDS011;30315;46.072;14.474;2023-06-22T09:27:02;13.00;;;8.05;;
44606;SDS011;30315;46.072;14.474;2023-06-22T09:29:29;8.52;;;7.60;;
44606;SDS011;30315;46.072;14.474;2023-06-22T09:32:00;11.43;;;8.00;;
44606;SDS011;30315;46.072;14.474;2023-06-22T09:34:27;12.95;;;7.90;;
44606;SDS011;30315;46.072;14.474;2023-06-22T09:36:54;10.02;;;7.70;;
44606;SDS011;30315;46.072;14.474;2023-06-22T09:39:21;10.70;;;7.40;;
44606;SDS011;30315;46.072;14.474;2023-06-22T09:41:48;14.65;;;8.57;;
44606;SDS011;30315;46.072;14.474;2023-06-22T09:44:15;9.18;;;7.88;;
44606;SDS011;30315;46.072;14.474;2023-06-22T09:46:42;8.85;;;7.68;;
44606;SDS011;30315;46.072;14.474;2023-06-22T09:49:09;9.50;;;7.45;;
44606;SDS011;30315;46.072;14.474;2023-06-22T09:51:36;8.40;;;7.45;;
44606;SDS011;30315;46.072;14.474;2023-06-22T09:54:04;8.52;;;7.43;;
44606;SDS011;30315;46.072;14.474;2023-06-22T09:56:31;8.80;;;7.63;;
44606;SDS011;30315;46.072;14.474;2023-06-22T09:58:58;10.10;;;7.85;;
44606;SDS011;30315;46.072;14.474;2023-06-22T10:01:39;12.65;;;8.13;;
44606;SDS011;30315;46.072;14.474;2023-06-22T10:04:06;11.77;;;7.55;;
44606;SDS011;30315;46.072;14.474;2023-06-22T10:06:33;11.98;;;7.68;;
44606;SDS011;30315;46.072;14.474;2023-06-22T10:09:00;14.95;;;8.27;;
44606;SDS011;30315;46.072;14.474;2023-06-22T10:11:27;10.82;;;8.38;;
44606;SDS011;30315;46.072;14.474;2023-06-22T10:13:57;11.80;;;8.07;;
44606;SDS011;30315;46.072;14.474;2023-06-22T10:16:29;11.25;;;8.23;;
44606;SDS011;30315;46.072;14.474;2023-06-22T10:18:57;8.35;;;7.35;;
44606;SDS011;30315;46.072;14.474;2023-06-22T10:21:24;10.38;;;7.70;;
44606;SDS011;30315;46.072;14.474;2023-06-22T10:23:53;14.43;;;8.20;;
44606;SDS011;30315;46.072;14.474;2023-06-22T10:26:22;9.80;;;7.97;;
44606;SDS011;30315;46.072;14.474;2023-06-22T10:28:50;11.07;;;8.40;;
44606;SDS011;30315;46.072;14.474;2023-06-22T10:31:36;11.55;;;7.95;;
44606;SDS011;30315;46.072;14.474;2023-06-22T10:34:04;16.73;;;8.75;;
44606;SDS011;30315;46.072;14.474;2023-06-22T10:36:31;9.02;;;7.85;;
44606;SDS011;30315;46.072;14.474;2023-06-22T10:38:58;11.48;;;8.68;;
44606;SDS011;30315;46.072;14.474;2023-06-22T10:41:26;9.60;;;8.65;;
44606;SDS011;30315;46.072;14.474;2023-06-22T10:43:56;8.60;;;7.75;;
44606;SDS011;30315;46.072;14.474;2023-06-22T10:46:26;13.73;;;8.70;;
44606;SDS011;30315;46.072;14.474;2023-06-22T10:48:54;17.83;;;8.50;;
44606;SDS011;30315;46.072;14.474;2023-06-22T10:51:23;14.30;;;8.50;;
44606;SDS011;30315;46.072;14.474;2023-06-22T10:53:50;19.25;;;8.10;;
44606;SDS011;30315;46.072;14.474;2023-06-22T10:56:18;17.65;;;8.85;;
44606;SDS011;30315;46.072;14.474;2023-06-22T10:58:45;10.98;;;8.48;;
44606;SDS011;30315;46.072;14.474;2023-06-22T11:01:13;10.70;;;8.57;;
44606;SDS011;30315;46.072;14.474;2023-06-22T11:04:00;11.43;;;8.73;;
44606;SDS011;30315;46.072;14.474;2023-06-22T11:06:27;10.77;;;7.70;;
44606;SDS011;30315;46.072;14.474;2023-06-22T11:08:54;10.27;;;8.00;;
44606;SDS011;30315;46.072;14.474;2023-06-22T11:11:37;11.05;;;8.07;;
44606;SDS011;30315;46.072;14.474;2023-06-22T11:14:04;10.57;;;7.53;;
44606;SDS011;30315;46.072;14.474;2023-06-22T11:16:31;13.38;;;8.50;;
44606;SDS011;30315;46.072;14.474;2023-06-22T11:18:58;12.30;;;8.43;;
44606;SDS011;30315;46.072;14.474;2023-06-22T11:21:25;14.70;;;9.20;;
44606;SDS011;30315;46.072;14.474;2023-06-22T11:23:52;9.00;;;8.20;;
44606;SDS011;30315;46.072;14.474;2023-06-22T11:26:19;11.80;;;8.40;;
44606;SDS011;30315;46.072;14.474;2023-06-22T11:28:47;11.70;;;8.37;;
44606;SDS011;30315;46.072;14.474;2023-06-22T11:31:14;12.73;;;8.15;;
44606;SDS011;30315;46.072;14.474;2023-06-22T11:33:52;16.27;;;8.75;;
44606;SDS011;30315;46.072;14.474;2023-06-22T11:36:19;11.57;;;8.32;;
44606;SDS011;30315;46.072;14.474;2023-06-22T11:38:46;11.68;;;8.23;;
44606;SDS011;30315;46.072;14.474;2023-06-22T11:41:13;9.85;;;8.70;;
44606;SDS011;30315;46.072;14.474;2023-06-22T11:43:40;10.73;;;8.48;;
44606;SDS011;30315;46.072;14.474;2023-06-22T11:46:07;11.02;;;8.32;;
44606;SDS011;30315;46.072;14.474;2023-06-22T11:48:35;10.93;;;8.13;;
44606;SDS011;30315;46.072;14.474;2023-06-22T11:51:03;10.05;;;8.60;;
44606;SDS011;30315;46.072;14.474;2023-06-22T11:53:30;11.07;;;8.27;;
44606;SDS011;30315;46.072;14.474;2023-06-22T11:55:57;11.35;;;7.72;;
44606;SDS011;30315;46.072;14.474;2023-06-22T11:58:24;11.68;;;7.95;;
44606;SDS011;30315;46.072;14.474;2023-06-22T12:00:51;11.00;;;8.18;;
44606;SDS011;30315;46.072;14.474;2023-06-22T12:03:19;12.10;;;8.73;;
44606;SDS011;30315;46.072;14.474;2023-06-22T12:05:49;15.43;;;8.80;;
44606;SDS011;30315;46.072;14.474;2023-06-22T12:08:18;9.63;;;7.88;;
44606;SDS011;30315;46.072;14.474;2023-06-22T12:10:45;11.60;;;8.02;;
44606;SDS011;30315;46.072;14.474;2023-06-22T12:13:12;14.13;;;8.05;;
44606;SDS011;30315;46.072;14.474;2023-06-22T12:15:39;10.38;;;8.35;;
44606;SDS011;30315;46.072;14.474;2023-06-22T12:18:06;12.50;;;7.85;;
44606;SDS011;30315;46.072;14.474;2023-06-22T12:20:35;10.85;;;7.43;;
44606;SDS011;30315;46.072;14.474;2023-06-22T12:23:02;8.95;;;7.55;;
44606;SDS011;30315;46.072;14.474;2023-06-22T12:25:29;13.05;;;7.75;;
44606;SDS011;30315;46.072;14.474;2023-06-22T12:27:56;11.25;;;8.02;;
44606;SDS011;30315;46.072;14.474;2023-06-22T12:30:23;12.90;;;7.90;;
44606;SDS011;30315;46.072;14.474;2023-06-22T12:32:50;10.07;;;7.53;;
44606;SDS011;30315;46.072;14.474;2023-06-22T12:35:20;14.75;;;8.27;;
44606;SDS011;30315;46.072;14.474;2023-06-22T12:37:48;14.85;;;8.85;;
44606;SDS011;30315;46.072;14.474;2023-06-22T12:40:15;18.90;;;9.27;;
44606;SDS011;30315;46.072;14.474;2023-06-22T12:42:42;16.15;;;8.40;;
44606;SDS011;30315;46.072;14.474;2023-06-22T12:45:10;14.98;;;8.75;;
44606;SDS011;30315;46.072;14.474;2023-06-22T12:47:38;19.25;;;9.45;;
44606;SDS011;30315;46.072;14.474;2023-06-22T12:50:05;11.85;;;8.38;;
44606;SDS011;30315;46.072;14.474;2023-06-22T12:52:33;17.38;;;9.23;;
44606;SDS011;30315;46.072;14.474;2023-06-22T12:55:00;14.40;;;8.50;;
44606;SDS011;30315;46.072;14.474;2023-06-22T12:57:27;18.05;;;8.20;;
44606;SDS011;30315;46.072;14.474;2023-06-22T12:59:54;12.75;;;8.52;;
44606;SDS011;30315;46.072;14.474;2023-06-22T13:02:21;12.02;;;8.10;;
44606;SDS011;30315;46.072;14.474;2023-06-22T13:04:48;15.20;;;9.23;;
44606;SDS011;30315;46.072;14.474;2023-06-22T13:07:15;12.75;;;8.48;;
44606;SDS011;30315;46.072;14.474;2023-06-22T13:09:49;13.02;;;9.35;;
44606;SDS011;30315;46.072;14.474;2023-06-22T13:12:19;13.85;;;9.40;;
44606;SDS011;30315;46.072;14.474;2023-06-22T13:14:47;19.55;;;9.73;;
44606;SDS011;30315;46.072;14.474;2023-06-22T13:17:14;15.98;;;9.15;;
44606;SDS011;30315;46.072;14.474;2023-06-22T13:19:42;11.02;;;8.30;;
44606;SDS011;30315;46.072;14.474;2023-06-22T13:22:25;17.67;;;9.82;;
44606;SDS011;30315;46.072;14.474;2023-06-22T13:24:52;12.13;;;9.50;;
44606;SDS011;30315;46.072;14.474;2023-06-22T13:29:48;17.67;;;9.77;;
44606;SDS011;30315;46.072;14.474;2023-06-22T13:32:15;15.35;;;9.45;;
44606;SDS011;30315;46.072;14.474;2023-06-22T13:34:43;15.57;;;10.02;;
44606;SDS011;30315;46.072;14.474;2023-06-22T13:37:10;14.43;;;10.13;;
44606;SDS011;30315;46.072;14.474;2023-06-22T13:39:37;12.73;;;10.43;;
44606;SDS011;30315;46.072;14.474;2023-06-22T13:42:04;20.33;;;10.65;;
44606;SDS011;30315;46.072;14.474;2023-06-22T13:44:32;15.88;;;10.73;;
44606;SDS011;30315;46.072;14.474;2023-06-22T13:46:59;12.65;;;11.38;;
44606;SDS011;30315;46.072;14.474;2023-06-22T13:49:26;15.93;;;11.70;;
44606;SDS011;30315;46.072;14.474;2023-06-22T13:51:53;14.77;;;11.85;;
44606;SDS011;30315;46.072;14.474;2023-06-22T13:54:21;15.15;;;11.57;;
44606;SDS011;30315;46.072;14.474;2023-06-22T13:56:51;17.98;;;11.20;;
44606;SDS011;30315;46.072;14.474;2023-06-22T13:59:18;15.00;;;11.35;;
44606;SDS011;30315;46.072;14.474;2023-06-22T14:01:46;15.30;;;12.50;;
44606;SDS011;30315;46.072;14.474;2023-06-22T14:04:13;13.90;;;12.60;;
44606;SDS011;30315;46.072;14.474;2023-06-22T14:06:40;13.65;;;11.23;;
44606;SDS011;30315;46.072;14.474;2023-06-22T14:09:07;16.83;;;13.13;;
44606;SDS011;30315;46.072;14.474;2023-06-22T14:11:35;13.52;;;12.18;;
44606;SDS011;30315;46.072;14.474;2023-06-22T14:14:02;14.45;;;12.27;;
44606;SDS011;30315;46.072;14.474;2023-06-22T14:16:28;13.15;;;11.10;;
44606;SDS011;30315;46.072;14.474;2023-06-22T14:18:55;13.88;;;12.20;;
44606;SDS011;30315;46.072;14.474;2023-06-22T14:21:24;25.65;;;12.65;;
44606;SDS011;30315;46.072;14.474;2023-06-22T14:23:52;17.65;;;12.75;;
44606;SDS011;30315;46.072;14.474;2023-06-22T14:26:19;14.50;;;13.00;;
44606;SDS011;30315;46.072;14.474;2023-06-22T14:28:46;16.30;;;12.57;;
44606;SDS011;30315;46.072;14.474;2023-06-22T14:33:44;14.27;;;12.75;;
44606;SDS011;30315;46.072;14.474;2023-06-22T14:36:13;14.93;;;12.90;;
44606;SDS011;30315;46.072;14.474;2023-06-22T14:38:42;20.60;;;13.68;;
44606;SDS011;30315;46.072;14.474;2023-06-22T14:41:09;23.48;;;13.60;;
44606;SDS011;30315;46.072;14.474;2023-06-22T14:43:47;15.60;;;12.93;;